createdAt,value
2019-01-24T00:00:08.873Z,928.77
2019-01-24T00:00:21.943Z,928.76
2019-01-24T00:00:34.936Z,928.8
2019-01-24T00:00:47.940Z,928.8
2019-01-24T00:01:00.991Z,928.77
2019-01-24T00:01:13.933Z,928.78
2019-01-24T00:01:26.933Z,928.78
2019-01-24T00:01:40.017Z,928.81
2019-01-24T00:01:52.998Z,928.81
2019-01-24T00:02:06.041Z,928.82
2019-01-24T00:02:19.057Z,928.84
2019-01-24T00:02:32.075Z,928.83
2019-01-24T00:02:45.130Z,928.82
2019-01-24T00:02:58.183Z,928.82
2019-01-24T00:03:11.174Z,928.82
2019-01-24T00:03:24.197Z,928.85
2019-01-24T00:03:37.248Z,928.84
2019-01-24T00:03:50.201Z,928.84
2019-01-24T00:04:03.169Z,928.84
2019-01-24T00:04:20.830Z,928.85
2019-01-24T00:04:33.355Z,928.8
2019-01-24T00:04:46.339Z,928.84
2019-01-24T00:04:59.312Z,928.85
2019-01-24T00:05:12.290Z,928.83
2019-01-24T00:05:25.323Z,928.82
2019-01-24T00:05:38.327Z,928.87
2019-01-24T00:05:51.726Z,928.84
2019-01-24T00:06:04.741Z,928.82
2019-01-24T00:06:17.806Z,928.85
2019-01-24T00:06:30.834Z,928.84
2019-01-24T00:06:43.829Z,928.85
2019-01-24T00:06:56.785Z,928.85
2019-01-24T00:07:09.821Z,928.86
2019-01-24T00:07:22.868Z,928.88
2019-01-24T00:07:35.915Z,928.81
2019-01-24T00:07:48.917Z,928.82
2019-01-24T00:08:01.926Z,928.82
2019-01-24T00:08:14.489Z,928.85
2019-01-24T00:08:27.450Z,928.88
2019-01-24T00:08:40.432Z,928.83
2019-01-24T00:08:53.915Z,928.83
2019-01-24T00:09:07.002Z,928.81
2019-01-24T00:09:19.950Z,928.86
2019-01-24T00:09:32.940Z,928.81
2019-01-24T00:09:45.954Z,928.83
2019-01-24T00:09:58.526Z,928.81
2019-01-24T00:10:11.537Z,928.81
2019-01-24T00:10:24.512Z,928.82
2019-01-24T00:10:37.507Z,928.83
2019-01-24T00:10:49.987Z,928.85
2019-01-24T00:11:02.983Z,928.81
2019-01-24T00:11:16.008Z,928.85
2019-01-24T00:11:29.033Z,928.81
2019-01-24T00:11:42.071Z,928.84
2019-01-24T00:11:55.034Z,928.82
2019-01-24T00:12:07.984Z,928.85
2019-01-24T00:12:20.968Z,928.83
2019-01-24T00:12:33.925Z,928.85
2019-01-24T00:12:46.978Z,928.84
2019-01-24T00:12:59.981Z,928.81
2019-01-24T00:13:13.013Z,928.83
2019-01-24T00:13:26.009Z,928.85
2019-01-24T00:13:39.055Z,928.84
2019-01-24T00:13:52.016Z,928.83
2019-01-24T00:14:05.038Z,928.82
2019-01-24T00:14:18.114Z,928.84
2019-01-24T00:14:31.256Z,928.88
2019-01-24T00:14:44.263Z,928.85
2019-01-24T00:14:57.242Z,928.84
2019-01-24T00:15:10.249Z,928.87
2019-01-24T00:15:23.186Z,928.89
2019-01-24T00:15:36.204Z,928.86
2019-01-24T00:15:49.233Z,928.85
2019-01-24T00:16:02.240Z,928.88
2019-01-24T00:16:15.516Z,928.86
2019-01-24T00:16:28.625Z,928.89
2019-01-24T00:16:41.669Z,928.82
2019-01-24T00:16:54.656Z,928.86
2019-01-24T00:17:07.662Z,928.86
2019-01-24T00:17:20.696Z,928.91
2019-01-24T00:17:33.710Z,928.84
2019-01-24T00:17:46.744Z,928.85
2019-01-24T00:17:59.781Z,928.87
2019-01-24T00:18:12.869Z,928.88
2019-01-24T00:18:26.127Z,928.86
2019-01-24T00:18:39.287Z,928.89
2019-01-24T00:18:52.304Z,928.92
2019-01-24T00:19:05.319Z,928.84
2019-01-24T00:19:18.336Z,928.96
2019-01-24T00:19:31.335Z,928.89
2019-01-24T00:19:44.347Z,928.88
2019-01-24T00:19:57.354Z,928.87
2019-01-24T00:20:10.387Z,928.93
2019-01-24T00:20:23.380Z,928.91
2019-01-24T00:20:36.432Z,928.93
2019-01-24T00:20:50.625Z,928.93
2019-01-24T00:21:03.605Z,928.93
2019-01-24T00:21:16.601Z,928.92
2019-01-24T00:21:29.598Z,928.91
2019-01-24T00:21:42.568Z,928.91
2019-01-24T00:21:55.626Z,928.93
2019-01-24T00:22:08.626Z,928.95
2019-01-24T00:22:21.633Z,928.94
2019-01-24T00:22:34.657Z,928.97
2019-01-24T00:22:47.621Z,928.96
2019-01-24T00:23:00.644Z,928.98
2019-01-24T00:23:13.634Z,928.92
2019-01-24T00:23:26.640Z,928.94
2019-01-24T00:23:39.573Z,928.94
2019-01-24T00:23:52.626Z,928.97
2019-01-24T00:24:05.570Z,928.98
2019-01-24T00:24:18.561Z,929
2019-01-24T00:24:31.573Z,929.03
2019-01-24T00:24:44.659Z,929.01
2019-01-24T00:24:57.640Z,929
2019-01-24T00:25:10.548Z,929.03
2019-01-24T00:25:23.128Z,929.03
2019-01-24T00:25:36.088Z,929
2019-01-24T00:25:49.432Z,929.03
2019-01-24T00:26:02.364Z,928.99
2019-01-24T00:26:15.407Z,929.05
2019-01-24T00:26:28.427Z,929.02
2019-01-24T00:26:41.434Z,929.04
2019-01-24T00:26:54.398Z,929.06
2019-01-24T00:27:07.431Z,929.08
2019-01-24T00:27:20.005Z,929.08
2019-01-24T00:27:33.014Z,929.07
2019-01-24T00:27:45.548Z,929.08
2019-01-24T00:27:58.589Z,929.09
2019-01-24T00:28:11.561Z,929.08
2019-01-24T00:28:24.599Z,929.12
2019-01-24T00:28:37.680Z,929.09
2019-01-24T00:28:50.723Z,929.11
2019-01-24T00:29:03.720Z,929.13
2019-01-24T00:29:16.706Z,929.12
2019-01-24T00:29:29.688Z,929.14
2019-01-24T00:29:42.623Z,929.15
2019-01-24T00:29:55.699Z,929.15
2019-01-24T00:30:08.713Z,929.16
2019-01-24T00:30:21.745Z,929.16
2019-01-24T00:30:34.752Z,929.17
2019-01-24T00:30:47.783Z,929.19
2019-01-24T00:31:00.798Z,929.18
2019-01-24T00:31:13.342Z,929.22
2019-01-24T00:31:26.387Z,929.15
2019-01-24T00:31:39.377Z,929.17
2019-01-24T00:31:52.423Z,929.16
2019-01-24T00:32:05.425Z,929.21
2019-01-24T00:32:18.455Z,929.21
2019-01-24T00:32:31.465Z,929.2
2019-01-24T00:32:44.499Z,929.22
2019-01-24T00:32:57.465Z,929.2
2019-01-24T00:33:10.482Z,929.28
2019-01-24T00:33:23.503Z,929.23
2019-01-24T00:33:36.533Z,929.3
2019-01-24T00:33:49.513Z,929.23
2019-01-24T00:34:02.542Z,929.24
2019-01-24T00:34:15.534Z,929.26
2019-01-24T00:34:33.403Z,929.29
2019-01-24T00:34:46.392Z,929.24
2019-01-24T00:34:59.374Z,929.25
2019-01-24T00:35:12.446Z,929.25
2019-01-24T00:35:25.380Z,929.28
2019-01-24T00:35:38.414Z,929.27
2019-01-24T00:35:51.488Z,929.26
2019-01-24T00:36:04.941Z,929.28
2019-01-24T00:36:17.904Z,929.29
2019-01-24T00:36:30.936Z,929.28
2019-01-24T00:36:43.506Z,929.28
2019-01-24T00:36:56.551Z,929.28
2019-01-24T00:37:09.566Z,929.26
2019-01-24T00:37:22.617Z,929.28
2019-01-24T00:37:35.563Z,929.26
2019-01-24T00:37:48.530Z,929.27
2019-01-24T00:38:01.481Z,929.28
2019-01-24T00:38:14.452Z,929.27
2019-01-24T00:38:27.478Z,929.27
2019-01-24T00:38:40.477Z,929.3
2019-01-24T00:38:53.478Z,929.32
2019-01-24T00:39:06.519Z,929.27
2019-01-24T00:39:19.527Z,929.33
2019-01-24T00:39:32.558Z,929.32
2019-01-24T00:39:45.520Z,929.27
2019-01-24T00:39:58.519Z,929.31
2019-01-24T00:40:11.585Z,929.3
2019-01-24T00:40:24.110Z,929.29
2019-01-24T00:40:37.097Z,929.32
2019-01-24T00:40:50.053Z,929.31
2019-01-24T00:41:02.996Z,929.34
2019-01-24T00:41:15.950Z,929.36
2019-01-24T00:41:28.974Z,929.38
2019-01-24T00:41:41.946Z,929.32
2019-01-24T00:41:54.984Z,929.31
2019-01-24T00:42:07.980Z,929.35
2019-01-24T00:42:21.030Z,929.36
2019-01-24T00:42:34.028Z,929.32
2019-01-24T00:42:47.024Z,929.36
2019-01-24T00:42:59.990Z,929.37
2019-01-24T00:43:12.995Z,929.4
2019-01-24T00:43:25.956Z,929.36
2019-01-24T00:43:38.993Z,929.37
2019-01-24T00:43:52.045Z,929.37
2019-01-24T00:44:05.031Z,929.35
2019-01-24T00:44:17.600Z,929.38
2019-01-24T00:44:30.602Z,929.36
2019-01-24T00:44:43.503Z,929.32
2019-01-24T00:44:56.513Z,929.36
2019-01-24T00:45:09.088Z,929.35
2019-01-24T00:45:22.123Z,929.36
2019-01-24T00:45:35.141Z,929.39
2019-01-24T00:45:48.129Z,929.36
2019-01-24T00:46:01.171Z,929.39
2019-01-24T00:46:14.189Z,929.34
2019-01-24T00:46:27.181Z,929.39
2019-01-24T00:46:40.209Z,929.39
2019-01-24T00:46:53.189Z,929.37
2019-01-24T00:47:06.190Z,929.39
2019-01-24T00:47:19.171Z,929.39
2019-01-24T00:47:32.186Z,929.38
2019-01-24T00:47:45.225Z,929.4
2019-01-24T00:47:58.234Z,929.37
2019-01-24T00:48:11.224Z,929.38
2019-01-24T00:48:24.267Z,929.39
2019-01-24T00:48:37.275Z,929.39
2019-01-24T00:48:50.413Z,929.37
2019-01-24T00:49:03.413Z,929.4
2019-01-24T00:49:16.466Z,929.43
2019-01-24T00:49:29.500Z,929.37
2019-01-24T00:49:42.517Z,929.41
2019-01-24T00:49:55.574Z,929.43
2019-01-24T00:50:08.557Z,929.42
2019-01-24T00:50:21.555Z,929.44
2019-01-24T00:50:34.607Z,929.46
2019-01-24T00:50:47.641Z,929.4
2019-01-24T00:51:01.415Z,929.41
2019-01-24T00:51:14.398Z,929.41
2019-01-24T00:51:27.422Z,929.39
2019-01-24T00:51:40.384Z,929.4
2019-01-24T00:51:53.423Z,929.43
2019-01-24T00:52:06.456Z,929.41
2019-01-24T00:52:19.468Z,929.41
2019-01-24T00:52:32.490Z,929.43
2019-01-24T00:52:45.563Z,929.46
2019-01-24T00:52:58.566Z,929.45
2019-01-24T00:53:11.040Z,929.42
2019-01-24T00:53:24.093Z,929.43
2019-01-24T00:53:36.660Z,929.46
2019-01-24T00:53:49.597Z,929.42
2019-01-24T00:54:02.604Z,929.44
2019-01-24T00:54:15.598Z,929.45
2019-01-24T00:54:28.668Z,929.46
2019-01-24T00:54:41.627Z,929.41
2019-01-24T00:54:54.655Z,929.43
2019-01-24T00:55:07.659Z,929.44
2019-01-24T00:55:20.659Z,929.42
2019-01-24T00:55:33.679Z,929.42
2019-01-24T00:55:46.689Z,929.43
2019-01-24T00:55:59.729Z,929.44
2019-01-24T00:56:12.753Z,929.44
2019-01-24T00:56:25.314Z,929.46
2019-01-24T00:56:38.326Z,929.45
2019-01-24T00:56:51.291Z,929.4
2019-01-24T00:57:04.282Z,929.44
2019-01-24T00:57:17.324Z,929.43
2019-01-24T00:57:30.211Z,929.43
2019-01-24T00:57:43.224Z,929.43
2019-01-24T00:57:56.238Z,929.42
2019-01-24T00:58:09.223Z,929.47
2019-01-24T00:58:22.163Z,929.45
2019-01-24T00:58:35.161Z,929.43
2019-01-24T00:58:48.147Z,929.45
2019-01-24T00:59:01.174Z,929.42
2019-01-24T00:59:14.185Z,929.41
2019-01-24T00:59:27.178Z,929.44
2019-01-24T00:59:40.266Z,929.44
2019-01-24T00:59:53.296Z,929.43
2019-01-24T01:00:06.327Z,929.42
2019-01-24T01:00:19.327Z,929.42
2019-01-24T01:00:32.283Z,929.43
2019-01-24T01:00:45.283Z,929.45
2019-01-24T01:00:58.245Z,929.44
2019-01-24T01:01:11.220Z,929.44
2019-01-24T01:01:24.282Z,929.41
2019-01-24T01:01:38.225Z,929.44
2019-01-24T01:01:51.298Z,929.42
2019-01-24T01:02:04.322Z,929.41
2019-01-24T01:02:17.315Z,929.39
2019-01-24T01:02:30.315Z,929.4
2019-01-24T01:02:43.241Z,929.39
2019-01-24T01:02:56.247Z,929.4
2019-01-24T01:03:08.715Z,929.37
2019-01-24T01:03:21.695Z,929.42
2019-01-24T01:03:34.627Z,929.39
2019-01-24T01:03:47.640Z,929.39
2019-01-24T01:04:00.657Z,929.37
2019-01-24T01:04:13.639Z,929.37
2019-01-24T01:04:30.972Z,929.34
2019-01-24T01:04:43.959Z,929.37
2019-01-24T01:04:56.971Z,929.38
2019-01-24T01:05:09.952Z,929.37
2019-01-24T01:05:22.915Z,929.35
2019-01-24T01:05:35.966Z,929.36
2019-01-24T01:05:48.889Z,929.39
2019-01-24T01:06:02.268Z,929.4
2019-01-24T01:06:15.316Z,929.35
2019-01-24T01:06:28.380Z,929.37
2019-01-24T01:06:41.435Z,929.41
2019-01-24T01:06:53.986Z,929.37
2019-01-24T01:07:06.940Z,929.39
2019-01-24T01:07:19.470Z,929.43
2019-01-24T01:07:32.489Z,929.39
2019-01-24T01:07:45.517Z,929.37
2019-01-24T01:07:58.542Z,929.39
2019-01-24T01:08:11.621Z,929.4
2019-01-24T01:08:24.636Z,929.45
2019-01-24T01:08:37.681Z,929.43
2019-01-24T01:08:50.683Z,929.41
2019-01-24T01:09:03.752Z,929.42
2019-01-24T01:09:16.736Z,929.46
2019-01-24T01:09:29.737Z,929.45
2019-01-24T01:09:42.835Z,929.44
2019-01-24T01:09:55.885Z,929.45
2019-01-24T01:10:08.926Z,929.47
2019-01-24T01:10:21.950Z,929.44
2019-01-24T01:10:34.980Z,929.47
2019-01-24T01:10:47.952Z,929.49
2019-01-24T01:11:00.944Z,929.45
2019-01-24T01:11:13.875Z,929.48
2019-01-24T01:11:26.834Z,929.51
2019-01-24T01:11:39.821Z,929.5
2019-01-24T01:11:52.801Z,929.51
2019-01-24T01:12:05.840Z,929.49
2019-01-24T01:12:18.894Z,929.52
2019-01-24T01:12:31.869Z,929.52
2019-01-24T01:12:44.847Z,929.51
2019-01-24T01:12:57.804Z,929.51
2019-01-24T01:13:10.818Z,929.54
2019-01-24T01:13:23.774Z,929.53
2019-01-24T01:13:36.715Z,929.53
2019-01-24T01:13:49.686Z,929.51
2019-01-24T01:14:02.671Z,929.54
2019-01-24T01:14:15.234Z,929.56
2019-01-24T01:14:28.190Z,929.54
2019-01-24T01:14:41.208Z,929.53
2019-01-24T01:14:54.239Z,929.52
2019-01-24T01:15:06.793Z,929.59
2019-01-24T01:15:19.805Z,929.58
2019-01-24T01:15:32.771Z,929.58
2019-01-24T01:15:45.815Z,929.55
2019-01-24T01:15:58.878Z,929.56
2019-01-24T01:16:11.914Z,929.6
2019-01-24T01:16:24.868Z,929.56
2019-01-24T01:16:37.870Z,929.59
2019-01-24T01:16:50.905Z,929.57
2019-01-24T01:17:03.981Z,929.57
2019-01-24T01:17:17.431Z,929.59
2019-01-24T01:17:30.425Z,929.56
2019-01-24T01:17:43.462Z,929.57
2019-01-24T01:17:56.467Z,929.56
2019-01-24T01:18:09.444Z,929.57
2019-01-24T01:18:22.385Z,929.56
2019-01-24T01:18:34.897Z,929.57
2019-01-24T01:18:47.894Z,929.58
2019-01-24T01:19:00.937Z,929.59
2019-01-24T01:19:13.974Z,929.59
2019-01-24T01:19:26.967Z,929.61
2019-01-24T01:19:39.475Z,929.61
2019-01-24T01:19:52.454Z,929.6
2019-01-24T01:20:05.480Z,929.61
2019-01-24T01:20:18.509Z,929.64
2019-01-24T01:20:31.536Z,929.65
2019-01-24T01:20:44.535Z,929.65
2019-01-24T01:20:57.498Z,929.67
2019-01-24T01:21:11.422Z,929.68
2019-01-24T01:21:24.419Z,929.68
2019-01-24T01:21:37.412Z,929.69
2019-01-24T01:21:50.368Z,929.7
2019-01-24T01:22:03.382Z,929.7
2019-01-24T01:22:16.403Z,929.71
2019-01-24T01:22:29.453Z,929.73
2019-01-24T01:22:42.461Z,929.72
2019-01-24T01:22:55.411Z,929.74
2019-01-24T01:23:08.440Z,929.73
2019-01-24T01:23:21.446Z,929.73
2019-01-24T01:23:35.612Z,929.73
2019-01-24T01:23:48.640Z,929.76
2019-01-24T01:24:01.673Z,929.72
2019-01-24T01:24:14.650Z,929.72
2019-01-24T01:24:27.656Z,929.74
2019-01-24T01:24:40.637Z,929.76
2019-01-24T01:24:53.683Z,929.75
2019-01-24T01:25:06.645Z,929.75
2019-01-24T01:25:19.591Z,929.76
2019-01-24T01:25:32.615Z,929.75
2019-01-24T01:25:45.650Z,929.74
2019-01-24T01:25:58.680Z,929.78
2019-01-24T01:26:11.707Z,929.77
2019-01-24T01:26:24.714Z,929.76
2019-01-24T01:26:37.772Z,929.76
2019-01-24T01:26:50.752Z,929.74
2019-01-24T01:27:03.824Z,929.74
2019-01-24T01:27:16.766Z,929.73
2019-01-24T01:27:29.309Z,929.75
2019-01-24T01:27:42.319Z,929.78
2019-01-24T01:27:55.327Z,929.76
2019-01-24T01:28:08.355Z,929.77
2019-01-24T01:28:21.324Z,929.74
2019-01-24T01:28:34.255Z,929.76
2019-01-24T01:28:47.296Z,929.74
2019-01-24T01:29:00.283Z,929.77
2019-01-24T01:29:13.322Z,929.75
2019-01-24T01:29:26.327Z,929.78
2019-01-24T01:29:39.378Z,929.77
2019-01-24T01:29:52.390Z,929.77
2019-01-24T01:30:05.411Z,929.73
2019-01-24T01:30:18.375Z,929.76
2019-01-24T01:30:31.423Z,929.77
2019-01-24T01:30:44.347Z,929.78
2019-01-24T01:30:57.325Z,929.74
2019-01-24T01:31:10.358Z,929.76
2019-01-24T01:31:23.363Z,929.78
2019-01-24T01:31:36.365Z,929.79
2019-01-24T01:31:49.386Z,929.76
2019-01-24T01:32:02.395Z,929.77
2019-01-24T01:32:15.405Z,929.77
2019-01-24T01:32:28.439Z,929.8
2019-01-24T01:32:41.517Z,929.79
2019-01-24T01:32:54.526Z,929.8
2019-01-24T01:33:07.524Z,929.8
2019-01-24T01:33:20.529Z,929.79
2019-01-24T01:33:33.554Z,929.78
2019-01-24T01:33:46.588Z,929.81
2019-01-24T01:33:59.589Z,929.83
2019-01-24T01:34:12.566Z,929.83
2019-01-24T01:34:25.575Z,929.85
2019-01-24T01:34:43.453Z,929.84
2019-01-24T01:34:56.484Z,929.82
2019-01-24T01:35:09.456Z,929.84
2019-01-24T01:35:22.511Z,929.85
2019-01-24T01:35:35.522Z,929.83
2019-01-24T01:35:48.485Z,929.85
2019-01-24T01:36:01.491Z,929.85
2019-01-24T01:36:15.224Z,929.9
2019-01-24T01:36:28.233Z,929.87
2019-01-24T01:36:41.252Z,929.88
2019-01-24T01:36:54.238Z,929.87
2019-01-24T01:37:07.220Z,929.88
2019-01-24T01:37:20.147Z,929.87
2019-01-24T01:37:33.177Z,929.89
2019-01-24T01:37:46.107Z,929.9
2019-01-24T01:37:59.176Z,929.92
2019-01-24T01:38:11.269Z,929.91
2019-01-24T01:38:24.535Z,929.9
2019-01-24T01:38:37.534Z,929.91
2019-01-24T01:38:50.528Z,929.91
2019-01-24T01:39:03.545Z,929.93
2019-01-24T01:39:16.526Z,929.92
2019-01-24T01:39:29.558Z,929.92
2019-01-24T01:39:42.557Z,929.92
2019-01-24T01:39:55.619Z,929.91
2019-01-24T01:40:08.689Z,929.91
2019-01-24T01:40:21.703Z,929.96
2019-01-24T01:40:34.689Z,929.94
2019-01-24T01:40:47.684Z,929.95
2019-01-24T01:41:00.621Z,929.96
2019-01-24T01:41:13.610Z,929.95
2019-01-24T01:41:26.541Z,929.95
2019-01-24T01:41:39.554Z,929.97
2019-01-24T01:41:52.559Z,929.98
2019-01-24T01:42:05.560Z,929.96
2019-01-24T01:42:18.586Z,929.94
2019-01-24T01:42:31.620Z,929.94
2019-01-24T01:42:44.610Z,929.96
2019-01-24T01:42:57.635Z,929.94
2019-01-24T01:43:10.568Z,929.98
2019-01-24T01:43:23.579Z,929.95
2019-01-24T01:43:36.585Z,929.99
2019-01-24T01:43:49.631Z,929.99
2019-01-24T01:44:02.579Z,929.98
2019-01-24T01:44:15.584Z,929.97
2019-01-24T01:44:28.584Z,929.98
2019-01-24T01:44:41.629Z,930.01
2019-01-24T01:44:54.543Z,930.02
2019-01-24T01:45:07.606Z,930.01
2019-01-24T01:45:20.659Z,930.01
2019-01-24T01:45:33.704Z,930
2019-01-24T01:45:46.682Z,929.99
2019-01-24T01:45:59.706Z,930.05
2019-01-24T01:46:12.710Z,930
2019-01-24T01:46:25.706Z,930.01
2019-01-24T01:46:38.709Z,930.04
2019-01-24T01:46:51.686Z,930.01
2019-01-24T01:47:04.726Z,930.02
2019-01-24T01:47:17.734Z,930.04
2019-01-24T01:47:30.712Z,930.03
2019-01-24T01:47:43.780Z,930.02
2019-01-24T01:47:56.788Z,930.01
2019-01-24T01:48:09.865Z,930
2019-01-24T01:48:22.904Z,930.01
2019-01-24T01:48:35.915Z,930.03
2019-01-24T01:48:48.476Z,930.02
2019-01-24T01:49:01.551Z,930.02
2019-01-24T01:49:14.596Z,930.02
2019-01-24T01:49:27.610Z,930
2019-01-24T01:49:40.645Z,929.98
2019-01-24T01:49:53.659Z,930.02
2019-01-24T01:50:06.691Z,929.99
2019-01-24T01:50:19.663Z,930
2019-01-24T01:50:32.665Z,929.99
2019-01-24T01:50:45.688Z,929.99
2019-01-24T01:50:58.663Z,930
2019-01-24T01:51:11.647Z,930
2019-01-24T01:51:25.580Z,929.99
2019-01-24T01:51:38.609Z,929.96
2019-01-24T01:51:51.648Z,930
2019-01-24T01:52:04.670Z,929.99
2019-01-24T01:52:17.693Z,930.03
2019-01-24T01:52:30.714Z,930.02
2019-01-24T01:52:43.701Z,929.98
2019-01-24T01:52:56.705Z,929.99
2019-01-24T01:53:09.714Z,929.99
2019-01-24T01:53:22.766Z,930.03
2019-01-24T01:53:35.767Z,930.01
2019-01-24T01:53:48.759Z,930.01
2019-01-24T01:54:01.771Z,930
2019-01-24T01:54:14.359Z,930.01
2019-01-24T01:54:27.411Z,930.02
2019-01-24T01:54:40.384Z,930.01
2019-01-24T01:54:53.381Z,930.01
2019-01-24T01:55:05.916Z,930.02
2019-01-24T01:55:18.819Z,929.99
2019-01-24T01:55:31.880Z,930.03
2019-01-24T01:55:44.873Z,929.99
2019-01-24T01:55:57.904Z,930.01
2019-01-24T01:56:10.900Z,930.01
2019-01-24T01:56:23.955Z,930.01
2019-01-24T01:56:37.016Z,930.03
2019-01-24T01:56:49.973Z,930.03
2019-01-24T01:57:02.962Z,930.02
2019-01-24T01:57:15.922Z,930.05
2019-01-24T01:57:28.890Z,930.02
2019-01-24T01:57:41.986Z,930.05
2019-01-24T01:57:55.051Z,930.06
2019-01-24T01:58:08.041Z,930.02
2019-01-24T01:58:20.997Z,930.03
2019-01-24T01:58:34.004Z,930
2019-01-24T01:58:47.030Z,930.03
2019-01-24T01:59:00.050Z,930.01
2019-01-24T01:59:13.086Z,930.03
2019-01-24T01:59:26.075Z,930.04
2019-01-24T01:59:39.038Z,930.03
2019-01-24T01:59:51.570Z,930.02
2019-01-24T02:00:04.580Z,930.02
2019-01-24T02:00:17.591Z,929.98
2019-01-24T02:00:30.579Z,930
2019-01-24T02:00:43.580Z,930
2019-01-24T02:00:56.564Z,929.99
2019-01-24T02:01:09.585Z,929.98
2019-01-24T02:01:22.633Z,930
2019-01-24T02:01:35.685Z,929.97
2019-01-24T02:01:48.674Z,929.96
2019-01-24T02:02:01.669Z,929.96
2019-01-24T02:02:14.642Z,929.95
2019-01-24T02:02:27.611Z,929.96
2019-01-24T02:02:40.639Z,929.96
2019-01-24T02:02:53.682Z,929.95
2019-01-24T02:03:06.241Z,929.91
2019-01-24T02:03:19.268Z,929.92
2019-01-24T02:03:32.283Z,929.94
2019-01-24T02:03:45.265Z,929.91
2019-01-24T02:03:58.222Z,929.92
2019-01-24T02:04:11.284Z,929.91
2019-01-24T02:04:24.347Z,929.9
2019-01-24T02:04:43.619Z,929.91
2019-01-24T02:04:56.622Z,929.9
2019-01-24T02:05:09.661Z,929.91
2019-01-24T02:05:22.699Z,929.9
2019-01-24T02:05:35.721Z,929.93
2019-01-24T02:05:48.706Z,929.93
2019-01-24T02:06:01.675Z,929.88
2019-01-24T02:06:14.759Z,929.86
2019-01-24T02:06:28.353Z,929.9
2019-01-24T02:06:41.306Z,929.9
2019-01-24T02:06:54.323Z,929.88
2019-01-24T02:07:07.326Z,929.89
2019-01-24T02:07:20.303Z,929.9
2019-01-24T02:07:33.266Z,929.88
2019-01-24T02:07:46.284Z,929.88
2019-01-24T02:07:59.330Z,929.92
2019-01-24T02:08:12.336Z,929.9
2019-01-24T02:08:25.389Z,929.9
2019-01-24T02:08:38.402Z,929.86
2019-01-24T02:08:51.380Z,929.91
2019-01-24T02:09:04.429Z,929.88
2019-01-24T02:09:17.460Z,929.86
2019-01-24T02:09:30.557Z,929.91
2019-01-24T02:09:43.598Z,929.88
2019-01-24T02:09:56.596Z,929.88
2019-01-24T02:10:09.674Z,929.88
2019-01-24T02:10:22.753Z,929.87
2019-01-24T02:10:35.782Z,929.84
2019-01-24T02:10:48.812Z,929.85
2019-01-24T02:11:01.381Z,929.88
2019-01-24T02:11:14.396Z,929.86
2019-01-24T02:11:27.371Z,929.87
2019-01-24T02:11:40.367Z,929.89
2019-01-24T02:11:53.353Z,929.88
2019-01-24T02:12:06.290Z,929.87
2019-01-24T02:12:19.325Z,929.87
2019-01-24T02:12:32.409Z,929.89
2019-01-24T02:12:44.996Z,929.87
2019-01-24T02:12:57.973Z,929.88
2019-01-24T02:13:11.066Z,929.89
2019-01-24T02:13:24.090Z,929.87
2019-01-24T02:13:37.053Z,929.87
2019-01-24T02:13:50.060Z,929.86
2019-01-24T02:14:03.076Z,929.86
2019-01-24T02:14:16.075Z,929.86
2019-01-24T02:14:29.058Z,929.87
2019-01-24T02:14:42.023Z,929.85
2019-01-24T02:14:55.094Z,929.89
2019-01-24T02:15:08.013Z,929.87
2019-01-24T02:15:21.050Z,929.87
2019-01-24T02:15:34.067Z,929.87
2019-01-24T02:15:47.040Z,929.89
2019-01-24T02:16:00.034Z,929.89
2019-01-24T02:16:13.014Z,929.86
2019-01-24T02:16:26.024Z,929.85
2019-01-24T02:16:39.045Z,929.87
2019-01-24T02:16:52.073Z,929.87
2019-01-24T02:17:05.068Z,929.85
2019-01-24T02:17:18.061Z,929.82
2019-01-24T02:17:31.073Z,929.86
2019-01-24T02:17:43.639Z,929.87
2019-01-24T02:17:56.631Z,929.83
2019-01-24T02:18:09.647Z,929.89
2019-01-24T02:18:22.736Z,929.85
2019-01-24T02:18:35.808Z,929.84
2019-01-24T02:18:48.359Z,929.84
2019-01-24T02:19:01.387Z,929.87
2019-01-24T02:19:14.364Z,929.87
2019-01-24T02:19:26.889Z,929.84
2019-01-24T02:19:39.923Z,929.83
2019-01-24T02:19:52.927Z,929.87
2019-01-24T02:20:05.859Z,929.84
2019-01-24T02:20:18.857Z,929.83
2019-01-24T02:20:31.816Z,929.87
2019-01-24T02:20:44.830Z,929.87
2019-01-24T02:20:57.799Z,929.9
2019-01-24T02:21:10.824Z,929.83
2019-01-24T02:21:23.818Z,929.85
2019-01-24T02:21:37.485Z,929.83
2019-01-24T02:21:50.450Z,929.88
2019-01-24T02:22:03.462Z,929.86
2019-01-24T02:22:16.519Z,929.83
2019-01-24T02:22:29.507Z,929.84
2019-01-24T02:22:42.548Z,929.86
2019-01-24T02:22:55.566Z,929.83
2019-01-24T02:23:08.578Z,929.83
2019-01-24T02:23:21.614Z,929.81
2019-01-24T02:23:34.597Z,929.84
2019-01-24T02:23:47.643Z,929.82
2019-01-24T02:24:00.671Z,929.83
2019-01-24T02:24:13.696Z,929.85
2019-01-24T02:24:26.772Z,929.86
2019-01-24T02:24:39.758Z,929.85
2019-01-24T02:24:52.809Z,929.84
2019-01-24T02:25:05.898Z,929.83
2019-01-24T02:25:18.895Z,929.84
2019-01-24T02:25:31.860Z,929.85
2019-01-24T02:25:44.814Z,929.81
2019-01-24T02:25:57.845Z,929.84
2019-01-24T02:26:10.884Z,929.81
2019-01-24T02:26:23.938Z,929.85
2019-01-24T02:26:36.930Z,929.85
2019-01-24T02:26:49.906Z,929.84
2019-01-24T02:27:02.892Z,929.87
2019-01-24T02:27:15.918Z,929.84
2019-01-24T02:27:28.976Z,929.84
2019-01-24T02:27:41.974Z,929.85
2019-01-24T02:27:55.004Z,929.86
2019-01-24T02:28:07.928Z,929.82
2019-01-24T02:28:20.460Z,929.86
2019-01-24T02:28:33.428Z,929.84
2019-01-24T02:28:46.386Z,929.85
2019-01-24T02:28:59.410Z,929.85
2019-01-24T02:29:12.407Z,929.85
2019-01-24T02:29:25.357Z,929.86
2019-01-24T02:29:38.450Z,929.88
2019-01-24T02:29:51.443Z,929.84
2019-01-24T02:30:04.416Z,929.84
2019-01-24T02:30:17.396Z,929.83
2019-01-24T02:30:30.400Z,929.85
2019-01-24T02:30:43.462Z,929.88
2019-01-24T02:30:56.474Z,929.87
2019-01-24T02:31:09.512Z,929.85
2019-01-24T02:31:22.507Z,929.85
2019-01-24T02:31:35.483Z,929.86
2019-01-24T02:31:48.464Z,929.85
2019-01-24T02:32:01.576Z,929.83
2019-01-24T02:32:14.622Z,929.86
2019-01-24T02:32:27.657Z,929.84
2019-01-24T02:32:40.686Z,929.83
2019-01-24T02:32:53.686Z,929.85
2019-01-24T02:33:06.690Z,929.85
2019-01-24T02:33:19.674Z,929.86
2019-01-24T02:33:32.684Z,929.86
2019-01-24T02:33:45.664Z,929.86
2019-01-24T02:33:58.616Z,929.82
2019-01-24T02:34:11.651Z,929.87
2019-01-24T02:34:24.693Z,929.88
2019-01-24T02:34:37.725Z,929.83
2019-01-24T02:34:56.698Z,929.84
2019-01-24T02:35:09.717Z,929.84
2019-01-24T02:35:22.684Z,929.86
2019-01-24T02:35:35.708Z,929.81
2019-01-24T02:35:48.751Z,929.83
2019-01-24T02:36:01.767Z,929.84
2019-01-24T02:36:14.797Z,929.8
2019-01-24T02:36:27.794Z,929.81
2019-01-24T02:36:41.205Z,929.79
2019-01-24T02:36:54.297Z,929.81
2019-01-24T02:37:07.361Z,929.78
2019-01-24T02:37:20.428Z,929.78
2019-01-24T02:37:33.426Z,929.78
2019-01-24T02:37:46.515Z,929.79
2019-01-24T02:37:59.582Z,929.8
2019-01-24T02:38:12.609Z,929.8
2019-01-24T02:38:25.569Z,929.83
2019-01-24T02:38:38.594Z,929.83
2019-01-24T02:38:51.639Z,929.82
2019-01-24T02:39:04.673Z,929.81
2019-01-24T02:39:17.675Z,929.84
2019-01-24T02:39:30.676Z,929.82
2019-01-24T02:39:43.676Z,929.82
2019-01-24T02:39:56.771Z,929.84
2019-01-24T02:40:09.826Z,929.85
2019-01-24T02:40:22.363Z,929.86
2019-01-24T02:40:34.914Z,929.84
2019-01-24T02:40:47.963Z,929.87
2019-01-24T02:41:00.898Z,929.83
2019-01-24T02:41:13.841Z,929.89
2019-01-24T02:41:26.806Z,929.85
2019-01-24T02:41:39.810Z,929.89
2019-01-24T02:41:52.757Z,929.91
2019-01-24T02:42:05.343Z,929.93
2019-01-24T02:42:18.360Z,929.92
2019-01-24T02:42:31.397Z,929.9
2019-01-24T02:42:44.371Z,929.92
2019-01-24T02:42:57.384Z,929.94
2019-01-24T02:43:10.422Z,929.92
2019-01-24T02:43:23.440Z,929.9